createdAt,value
2023-05-21T00:00:40.753Z,10.50
2023-05-21T00:03:30.441Z,9.43
2023-05-21T00:06:17.569Z,12.57
2023-05-21T00:09:05.881Z,10.83
2023-05-21T00:11:53.131Z,10.60
2023-05-21T00:14:39.841Z,9.83
2023-05-21T00:17:27.248Z,13.30
2023-05-21T00:20:17.049Z,12.73
2023-05-21T00:23:04.320Z,11.33
2023-05-21T00:25:51.907Z,10.60
2023-05-21T00:28:38.801Z,13.37
2023-05-21T00:31:25.861Z,14.20
2023-05-21T00:34:16.809Z,10.10
2023-05-21T00:37:05.652Z,12.00
2023-05-21T00:39:52.644Z,10.43
2023-05-21T00:42:40.049Z,12.03
2023-05-21T00:45:28.092Z,12.70
2023-05-21T00:48:18.608Z,10.93
2023-05-21T00:51:06.388Z,10.83
2023-05-21T00:53:56.073Z,11.57
2023-05-21T00:56:43.485Z,12.50
2023-05-21T00:59:30.673Z,10.70
2023-05-21T01:02:18.229Z,11.67
2023-05-21T01:05:06.917Z,11.47
2023-05-21T01:07:54.305Z,11.77
2023-05-21T01:10:43.086Z,11.40
2023-05-21T01:13:31.502Z,11.13
2023-05-21T01:16:18.473Z,11.73
2023-05-21T01:19:06.835Z,13.67
2023-05-21T01:22:02.708Z,15.33
2023-05-21T01:24:55.479Z,14.77
2023-05-21T01:27:42.554Z,11.17
2023-05-21T01:30:29.841Z,10.97
2023-05-21T01:33:21.123Z,12.33
2023-05-21T01:36:16.632Z,11.80
2023-05-21T01:39:07.345Z,12.47
2023-05-21T01:41:57.579Z,11.70
2023-05-21T01:44:46.114Z,11.73
2023-05-21T01:47:34.289Z,13.33
2023-05-21T01:50:21.251Z,12.60
2023-05-21T01:53:08.426Z,14.70
2023-05-21T01:55:55.542Z,13.87
2023-05-21T01:58:44.056Z,11.87
2023-05-21T02:01:31.370Z,13.60
2023-05-21T02:04:18.524Z,11.43
2023-05-21T02:07:05.450Z,13.37
2023-05-21T02:09:52.300Z,14.77
2023-05-21T02:12:39.414Z,12.63
2023-05-21T02:15:27.899Z,12.50
2023-05-21T02:18:16.724Z,14.13
2023-05-21T02:21:03.869Z,13.87
2023-05-21T02:23:51.011Z,11.17
2023-05-21T02:26:38.012Z,12.67
2023-05-21T02:29:25.307Z,11.03
2023-05-21T02:32:13.996Z,11.87
2023-05-21T02:35:02.031Z,15.43
2023-05-21T02:37:49.098Z,12.47
2023-05-21T02:40:36.057Z,12.97
2023-05-21T02:43:23.027Z,12.97
2023-05-21T02:46:10.281Z,13.23
2023-05-21T02:48:58.982Z,12.60
2023-05-21T02:51:46.153Z,12.17
2023-05-21T02:54:33.096Z,12.27
2023-05-21T02:57:20.570Z,11.60
2023-05-21T03:00:08.969Z,12.80
2023-05-21T03:02:55.998Z,13.40
2023-05-21T03:05:45.864Z,12.20
2023-05-21T03:08:33.046Z,15.00
2023-05-21T03:11:20.733Z,12.77
2023-05-21T03:14:07.687Z,13.10
2023-05-21T03:16:55.022Z,14.47
2023-05-21T03:19:42.748Z,12.93
2023-05-21T03:22:31.734Z,12.43
2023-05-21T03:25:18.560Z,12.67
2023-05-21T03:28:07.619Z,13.73
2023-05-21T03:30:55.994Z,12.03
2023-05-21T03:33:43.320Z,14.47
2023-05-21T03:36:30.198Z,22.43
2023-05-21T03:39:18.437Z,12.60
2023-05-21T03:42:05.943Z,13.57
2023-05-21T03:44:52.826Z,13.73
2023-05-21T03:47:39.484Z,14.90
2023-05-21T03:50:26.617Z,12.87
2023-05-21T03:53:14.020Z,11.77
2023-05-21T03:56:02.447Z,14.53
2023-05-21T03:58:49.294Z,15.70
2023-05-21T04:01:36.560Z,12.93
2023-05-21T04:04:23.619Z,14.43
2023-05-21T04:07:14.631Z,13.73
2023-05-21T04:10:02.138Z,12.87
2023-05-21T04:12:52.650Z,12.27
2023-05-21T04:15:40.121Z,13.23
2023-05-21T04:18:27.291Z,18.50
2023-05-21T04:21:14.762Z,14.30
2023-05-21T04:24:01.937Z,13.50
2023-05-21T04:26:50.042Z,13.13
2023-05-21T04:29:42.766Z,14.43
2023-05-21T04:32:30.980Z,19.90
2023-05-21T04:35:20.983Z,13.00
2023-05-21T04:38:08.589Z,14.57
2023-05-21T04:40:55.821Z,15.23
2023-05-21T04:43:44.117Z,15.17
2023-05-21T04:46:32.863Z,13.90
2023-05-21T04:49:21.085Z,15.10
2023-05-21T04:52:08.349Z,15.67
2023-05-21T04:54:55.245Z,14.63
2023-05-21T04:57:42.135Z,14.43
2023-05-21T05:00:28.794Z,15.90
2023-05-21T05:03:17.498Z,12.77
2023-05-21T05:06:04.922Z,14.70
2023-05-21T05:08:51.919Z,11.97
2023-05-21T05:11:41.513Z,12.73
2023-05-21T05:14:28.700Z,14.40
2023-05-21T05:17:15.796Z,13.13
2023-05-21T05:20:04.377Z,13.27
2023-05-21T05:22:51.432Z,17.00
2023-05-21T05:25:38.773Z,13.73
2023-05-21T05:28:25.665Z,14.47
2023-05-21T05:31:12.361Z,13.33
2023-05-21T05:33:59.851Z,12.90
2023-05-21T05:36:48.429Z,14.87
2023-05-21T05:39:35.583Z,15.67
2023-05-21T05:42:22.647Z,13.50
2023-05-21T05:45:11.537Z,17.20
2023-05-21T05:47:58.838Z,16.00
2023-05-21T05:50:47.059Z,13.57
2023-05-21T05:53:35.613Z,14.00
2023-05-21T05:56:22.506Z,15.50
2023-05-21T05:59:09.393Z,14.07
2023-05-21T06:01:56.532Z,15.00
2023-05-21T06:04:44.207Z,12.93
2023-05-21T06:07:31.577Z,13.60
2023-05-21T06:10:20.790Z,14.50
2023-05-21T06:13:07.954Z,15.00
2023-05-21T06:15:57.344Z,17.27
2023-05-21T06:18:44.762Z,16.85
2023-05-21T06:21:31.742Z,14.65
2023-05-21T06:24:18.775Z,14.55
2023-05-21T06:27:07.734Z,13.13
2023-05-21T06:29:54.604Z,14.40
2023-05-21T06:32:41.861Z,15.80
2023-05-21T06:35:28.850Z,17.23
2023-05-21T06:38:15.801Z,11.88
2023-05-21T06:41:04.600Z,13.18
2023-05-21T06:43:53.000Z,14.10
2023-05-21T06:46:40.025Z,13.38
2023-05-21T06:49:27.493Z,13.23
2023-05-21T06:52:14.456Z,13.40
2023-05-21T06:55:01.515Z,13.10
2023-05-21T06:57:48.374Z,15.77
2023-05-21T07:00:40.230Z,15.95
2023-05-21T07:03:27.414Z,11.75
2023-05-21T07:06:14.825Z,11.55
2023-05-21T07:09:01.654Z,15.02
2023-05-21T07:11:48.869Z,13.45
2023-05-21T07:14:36.133Z,14.68
2023-05-21T07:17:25.077Z,13.52
2023-05-21T07:20:13.933Z,12.10
2023-05-21T07:23:01.106Z,13.80
2023-05-21T07:25:47.947Z,13.02
2023-05-21T07:28:35.228Z,14.85
2023-05-21T07:31:22.482Z,15.38
2023-05-21T07:34:10.894Z,13.23
2023-05-21T07:36:57.796Z,13.75
2023-05-21T07:39:45.132Z,13.32
2023-05-21T07:42:32.675Z,14.90
2023-05-21T07:45:19.521Z,14.70
2023-05-21T07:48:07.063Z,16.50
2023-05-21T07:50:57.030Z,13.27
2023-05-21T07:53:43.983Z,15.40
2023-05-21T07:56:32.388Z,14.32
2023-05-21T07:59:19.456Z,15.70
2023-05-21T08:02:07.868Z,15.07
2023-05-21T08:04:55.286Z,14.82
2023-05-21T08:07:44.234Z,13.75
2023-05-21T08:10:30.914Z,13.23
2023-05-21T08:13:18.901Z,13.55
2023-05-21T08:16:07.236Z,13.60
2023-05-21T08:18:54.281Z,11.20
2023-05-21T08:21:41.318Z,12.10
2023-05-21T08:24:29.665Z,11.95
2023-05-21T08:27:17.441Z,14.48
2023-05-21T08:30:08.037Z,14.10
2023-05-21T08:32:56.112Z,10.93
2023-05-21T08:35:43.306Z,15.02
2023-05-21T08:38:32.036Z,12.02
2023-05-21T08:41:24.281Z,12.30
2023-05-21T08:44:13.423Z,11.43
2023-05-21T08:47:02.151Z,11.60
2023-05-21T08:49:51.151Z,12.30
2023-05-21T08:52:38.586Z,12.23
2023-05-21T08:55:26.878Z,11.65
2023-05-21T08:58:16.944Z,11.02
2023-05-21T09:01:06.135Z,15.52
2023-05-21T09:03:59.087Z,11.07
2023-05-21T09:06:53.537Z,15.85
2023-05-21T09:09:50.406Z,11.00
2023-05-21T09:12:37.928Z,15.88
2023-05-21T09:15:28.080Z,10.27
2023-05-21T09:18:16.019Z,10.77
2023-05-21T09:21:25.104Z,10.48
2023-05-21T09:24:13.900Z,10.00
2023-05-21T09:27:01.234Z,11.15
2023-05-21T09:29:48.663Z,10.30
2023-05-21T09:32:37.428Z,9.73
2023-05-21T09:35:24.862Z,10.50
2023-05-21T09:38:13.335Z,10.95
2023-05-21T09:41:00.938Z,10.13
2023-05-21T09:43:48.080Z,10.52
2023-05-21T09:46:42.500Z,11.60
2023-05-21T09:49:31.759Z,10.00
2023-05-21T09:52:26.490Z,10.15
2023-05-21T09:55:14.877Z,10.95
2023-05-21T09:58:04.691Z,10.57
2023-05-21T10:00:54.813Z,9.95
2023-05-21T10:03:43.156Z,10.82
2023-05-21T10:06:33.773Z,10.40
2023-05-21T10:09:21.734Z,10.32
2023-05-21T10:12:11.086Z,9.75
2023-05-21T10:15:05.552Z,11.55
2023-05-21T10:17:54.054Z,10.43
2023-05-21T10:20:41.698Z,10.52
2023-05-21T10:23:31.203Z,9.23
2023-05-21T10:26:20.759Z,8.95
2023-05-21T10:29:09.104Z,9.23
2023-05-21T10:31:56.630Z,8.60
2023-05-21T10:34:45.362Z,9.05
2023-05-21T10:37:32.725Z,8.95
2023-05-21T10:40:21.421Z,7.28
2023-05-21T10:43:26.800Z,7.97
2023-05-21T10:46:26.945Z,8.73
2023-05-21T10:49:30.612Z,11.55
2023-05-21T10:52:36.075Z,10.00
2023-05-21T10:55:38.594Z,8.05
2023-05-21T10:58:57.656Z,8.05
2023-05-21T11:01:48.578Z,7.80
2023-05-21T11:04:44.166Z,8.90
2023-05-21T11:07:56.304Z,8.90
2023-05-21T11:10:46.064Z,8.27
2023-05-21T11:13:49.250Z,7.75
2023-05-21T11:16:37.840Z,7.43
2023-05-21T11:19:35.992Z,7.38
2023-05-21T11:22:24.738Z,6.53
2023-05-21T11:25:14.926Z,6.72
2023-05-21T11:28:09.563Z,8.82
2023-05-21T11:31:24.060Z,7.78
2023-05-21T11:34:14.674Z,7.32
2023-05-21T11:37:34.593Z,8.63
2023-05-21T11:40:26.812Z,10.05
2023-05-21T11:43:15.176Z,6.95
2023-05-21T11:46:02.744Z,7.32
2023-05-21T11:48:50.937Z,6.93
2023-05-21T11:51:38.205Z,8.57
2023-05-21T11:54:25.982Z,10.88
2023-05-21T11:57:16.055Z,6.47
2023-05-21T12:00:21.931Z,8.48
2023-05-21T12:03:32.987Z,7.57
2023-05-21T12:06:28.199Z,5.30
2023-05-21T12:09:15.714Z,7.75
2023-05-21T12:12:02.899Z,6.78
2023-05-21T12:14:51.539Z,7.07
2023-05-21T12:17:40.427Z,6.72
2023-05-21T12:20:30.310Z,11.75
2023-05-21T12:23:21.395Z,12.98
2023-05-21T12:26:09.329Z,12.35
2023-05-21T12:28:57.188Z,13.45
2023-05-21T12:31:51.715Z,14.38
2023-05-21T12:34:40.868Z,13.95
2023-05-21T12:37:31.324Z,15.43
2023-05-21T12:40:18.442Z,15.70
2023-05-21T12:43:05.888Z,17.48
2023-05-21T12:45:55.400Z,15.52
2023-05-21T12:48:43.761Z,16.55
2023-05-21T12:51:41.040Z,17.45
2023-05-21T12:54:31.761Z,16.55
2023-05-21T12:57:27.932Z,16.63
2023-05-21T13:00:16.505Z,14.90
2023-05-21T13:03:07.298Z,17.80
2023-05-21T13:06:02.332Z,16.33
2023-05-21T13:08:53.374Z,17.05
2023-05-21T13:11:42.972Z,17.75
2023-05-21T13:14:31.827Z,15.55
2023-05-21T13:17:22.178Z,15.35
2023-05-21T13:20:27.944Z,18.42
2023-05-21T13:23:18.285Z,18.00
2023-05-21T13:26:12.624Z,17.73
2023-05-21T13:29:03.058Z,16.40
2023-05-21T13:31:59.215Z,15.55
2023-05-21T13:34:51.982Z,18.00
2023-05-21T13:37:42.736Z,20.73
2023-05-21T13:40:38.844Z,16.08
2023-05-21T13:43:30.485Z,16.48
2023-05-21T13:46:30.835Z,15.80
2023-05-21T13:49:30.830Z,16.92
2023-05-21T13:52:18.082Z,19.35
2023-05-21T13:55:05.312Z,19.42
2023-05-21T13:57:59.122Z,18.33
2023-05-21T14:00:47.726Z,16.63
2023-05-21T14:03:34.935Z,19.10
2023-05-21T14:06:22.020Z,17.50
2023-05-21T14:09:09.210Z,21.45
2023-05-21T14:11:57.210Z,16.40
2023-05-21T14:14:44.440Z,19.40
2023-05-21T14:17:32.879Z,16.17
2023-05-21T14:20:19.745Z,15.75
2023-05-21T14:23:06.963Z,16.20
2023-05-21T14:25:54.200Z,16.83
2023-05-21T14:28:41.031Z,16.58
2023-05-21T14:31:28.321Z,16.27
2023-05-21T14:34:16.804Z,16.60
2023-05-21T14:37:03.667Z,16.63
2023-05-21T14:39:51.038Z,16.65
2023-05-21T14:42:38.104Z,15.70
2023-05-21T14:45:25.030Z,23.88
2023-05-21T14:48:12.777Z,18.90
2023-05-21T14:51:04.712Z,16.60
2023-05-21T14:53:52.142Z,9.45
2023-05-21T14:56:39.378Z,8.43
2023-05-21T14:59:26.149Z,8.57
2023-05-21T15:02:13.121Z,8.57
2023-05-21T15:05:00.279Z,9.02
2023-05-21T15:07:48.788Z,8.40
2023-05-21T15:10:35.845Z,10.73
2023-05-21T15:13:23.070Z,8.32
2023-05-21T15:16:10.468Z,6.93
2023-05-21T15:18:57.324Z,11.82
2023-05-21T15:21:44.567Z,7.68
2023-05-21T15:24:32.964Z,7.47
2023-05-21T15:27:19.933Z,7.00
2023-05-21T15:30:08.951Z,7.88
2023-05-21T15:32:55.708Z,6.75
2023-05-21T15:35:43.019Z,10.90
2023-05-21T15:38:30.123Z,7.32
2023-05-21T15:41:18.888Z,9.63
2023-05-21T15:44:06.150Z,8.10
2023-05-21T15:46:54.673Z,8.93
2023-05-21T15:49:41.698Z,7.45
2023-05-21T15:52:28.798Z,6.43
2023-05-21T15:55:16.162Z,8.23
2023-05-21T15:58:04.659Z,7.78
2023-05-21T16:00:51.552Z,8.00
2023-05-21T16:03:39.067Z,6.78
2023-05-21T16:06:26.095Z,8.73
2023-05-21T16:09:13.221Z,6.75
2023-05-21T16:12:00.940Z,7.85
2023-05-21T16:14:51.080Z,9.23
2023-05-21T16:17:38.024Z,8.45
2023-05-21T16:20:25.160Z,8.10
2023-05-21T16:23:12.879Z,7.68
2023-05-21T16:26:00.225Z,9.52
2023-05-21T16:28:47.404Z,6.95
2023-05-21T16:31:38.084Z,7.82
2023-05-21T16:34:24.917Z,7.80
2023-05-21T16:37:12.194Z,9.38
2023-05-21T16:39:59.054Z,9.63
2023-05-21T16:42:46.008Z,8.50
2023-05-21T16:45:40.183Z,8.73
2023-05-21T16:48:28.695Z,10.40
2023-05-21T16:51:15.592Z,7.95
2023-05-21T16:54:04.199Z,8.00
2023-05-21T16:56:51.265Z,8.90
2023-05-21T16:59:38.302Z,9.88
2023-05-21T17:02:25.743Z,8.55
2023-05-21T17:05:14.273Z,6.85
2023-05-21T17:08:01.556Z,8.32
2023-05-21T17:10:48.615Z,8.25
2023-05-21T17:13:36.046Z,9.07
2023-05-21T17:16:23.765Z,8.32
2023-05-21T17:19:10.765Z,8.65
2023-05-21T17:21:59.107Z,7.95
2023-05-21T17:24:46.299Z,7.78
2023-05-21T17:27:33.458Z,8.95
2023-05-21T17:30:21.059Z,10.50
2023-05-21T17:33:08.021Z,8.13
2023-05-21T17:35:56.484Z,8.07
2023-05-21T17:38:48.009Z,8.40
2023-05-21T17:41:35.984Z,8.38
2023-05-21T17:44:23.212Z,8.27
2023-05-21T17:47:10.187Z,10.20
2023-05-21T17:49:56.982Z,8.85
2023-05-21T17:52:44.343Z,9.30
2023-05-21T17:55:34.281Z,7.85
2023-05-21T17:58:21.196Z,10.98
2023-05-21T18:01:08.424Z,7.88
2023-05-21T18:03:55.810Z,9.05
2023-05-21T18:06:44.151Z,6.07
2023-05-21T18:09:31.216Z,10.50
2023-05-21T18:12:19.693Z,8.20
2023-05-21T18:15:07.253Z,8.35
2023-05-21T18:17:54.581Z,9.50
2023-05-21T18:20:41.574Z,10.00
2023-05-21T18:23:30.594Z,9.57
2023-05-21T18:26:18.187Z,8.57
2023-05-21T18:29:07.151Z,9.48
2023-05-21T18:31:54.118Z,8.40
2023-05-21T18:34:43.340Z,8.27
2023-05-21T18:37:30.452Z,9.03
2023-05-21T18:40:21.900Z,10.63
2023-05-21T18:43:10.840Z,11.73
2023-05-21T18:45:58.988Z,10.87
2023-05-21T18:48:46.382Z,7.40
2023-05-21T18:51:33.438Z,9.68
2023-05-21T18:54:20.308Z,10.93
2023-05-21T18:57:10.250Z,10.30
2023-05-21T18:59:59.523Z,11.30
2023-05-21T19:02:48.858Z,9.97
2023-05-21T19:05:36.018Z,9.37
2023-05-21T19:08:23.955Z,8.53
2023-05-21T19:11:12.214Z,10.77
2023-05-21T19:14:00.416Z,10.67
2023-05-21T19:16:47.468Z,11.97
2023-05-21T19:19:35.879Z,10.23
2023-05-21T19:22:24.013Z,9.00
2023-05-21T19:25:12.017Z,8.60
2023-05-21T19:28:00.800Z,9.03
2023-05-21T19:30:47.919Z,9.17
2023-05-21T19:33:35.363Z,7.73
2023-05-21T19:36:23.542Z,10.63
2023-05-21T19:39:10.837Z,8.33
2023-05-21T19:41:58.284Z,8.93
2023-05-21T19:44:45.120Z,9.47
2023-05-21T19:47:32.358Z,10.43
2023-05-21T19:50:19.383Z,9.20
2023-05-21T19:53:07.713Z,9.87
2023-05-21T19:55:54.636Z,9.40
2023-05-21T19:58:41.660Z,8.40
2023-05-21T20:01:39.408Z,10.40
2023-05-21T20:04:26.289Z,8.23
2023-05-21T20:07:13.028Z,11.30
2023-05-21T20:10:01.186Z,9.13
2023-05-21T20:12:48.087Z,10.40
2023-05-21T20:15:35.059Z,12.17
2023-05-21T20:18:22.197Z,8.97
2023-05-21T20:21:09.411Z,10.97
2023-05-21T20:23:56.523Z,10.50
2023-05-21T20:26:45.004Z,9.27
2023-05-21T20:29:31.974Z,9.83
2023-05-21T20:32:19.232Z,9.17
2023-05-21T20:35:08.958Z,10.07
2023-05-21T20:37:56.025Z,7.53
2023-05-21T20:40:44.151Z,8.83
2023-05-21T20:43:32.918Z,9.20
2023-05-21T20:46:19.967Z,10.20
2023-05-21T20:49:09.666Z,10.10
2023-05-21T20:51:56.902Z,10.97
2023-05-21T20:54:46.604Z,9.87
2023-05-21T20:57:33.217Z,9.33
2023-05-21T21:00:22.119Z,11.50
2023-05-21T21:03:10.730Z,8.97
2023-05-21T21:05:58.143Z,11.10
2023-05-21T21:08:46.394Z,11.20
2023-05-21T21:11:33.228Z,14.37
2023-05-21T21:14:20.109Z,10.33
2023-05-21T21:17:08.637Z,10.90
2023-05-21T21:19:55.719Z,11.63
2023-05-21T21:22:42.563Z,11.90
2023-05-21T21:25:29.826Z,11.00
2023-05-21T21:28:16.856Z,12.27
2023-05-21T21:31:04.342Z,11.90
2023-05-21T21:33:52.910Z,10.33
2023-05-21T21:36:39.981Z,13.27
2023-05-21T21:39:26.911Z,9.33
2023-05-21T21:42:14.151Z,11.30
2023-05-21T21:45:00.848Z,12.10
2023-05-21T21:47:48.190Z,13.47
2023-05-21T21:50:36.443Z,9.57
2023-05-21T21:53:23.592Z,12.63
2023-05-21T21:56:11.028Z,12.27
2023-05-21T21:58:58.065Z,9.83
2023-05-21T22:01:45.217Z,11.67
2023-05-21T22:04:32.200Z,12.77
2023-05-21T22:07:21.042Z,12.37
2023-05-21T22:10:08.760Z,9.90
2023-05-21T22:12:56.342Z,13.87
2023-05-21T22:15:43.256Z,10.53
2023-05-21T22:18:39.780Z,9.43
2023-05-21T22:21:29.433Z,8.70
2023-05-21T22:24:31.545Z,10.13
2023-05-21T22:27:19.399Z,10.53
2023-05-21T22:30:07.851Z,12.37
2023-05-21T22:32:56.751Z,12.03
2023-05-21T22:35:43.735Z,9.63
2023-05-21T22:38:30.730Z,10.97
2023-05-21T22:41:22.046Z,9.80
2023-05-21T22:44:08.945Z,10.07
2023-05-21T22:47:00.304Z,10.70
2023-05-21T22:49:47.901Z,10.77
2023-05-21T22:52:35.517Z,11.93
2023-05-21T22:55:22.340Z,9.23
2023-05-21T22:58:10.740Z,10.23
2023-05-21T23:00:58.056Z,10.40
2023-05-21T23:03:45.100Z,11.53
2023-05-21T23:06:34.519Z,10.67
2023-05-21T23:09:21.309Z,12.10
2023-05-21T23:12:08.971Z,9.80
2023-05-21T23:14:57.432Z,9.70
2023-05-21T23:17:44.377Z,9.80
2023-05-21T23:20:32.377Z,8.83
2023-05-21T23:23:19.432Z,10.43
2023-05-21T23:26:06.450Z,10.53
2023-05-21T23:28:53.443Z,12.97
2023-05-21T23:31:42.034Z,9.63
2023-05-21T23:34:28.906Z,9.20
2023-05-21T23:37:19.071Z,9.60
2023-05-21T23:40:07.094Z,9.93
2023-05-21T23:42:53.838Z,11.67
2023-05-21T23:45:41.253Z,10.30
2023-05-21T23:48:29.791Z,8.83
2023-05-21T23:51:18.372Z,10.47
2023-05-21T23:54:05.339Z,10.03
2023-05-21T23:56:52.255Z,8.53
2023-05-21T23:59:39.400Z,8.70
